SAS751 EKCH-EPWA
Flight info
| Callsign | SAS751 |
|---|---|
| Flight time | 1h 12m |
| Altitude | 35000 |
| Route | SIMEG Z491 TELMO DCT KOLOB DCT NASOK N195 SORIX |
| Aircraft | B737/M-SDE2E3FGHIRWXY/LB1 |
Departure
| Time | 2026-04-22 10:01 |
|---|---|
| Airport | Copenhagen Kastrup Airport (EKCH) |
Arrival
| Time | 2026-04-22 11:13 |
|---|---|
| Airport | Warsaw Chopin Airport (EPWA) |
| Time | Latitude | Longitude | Altitude | Speed | Heading |
|---|---|---|---|---|---|
| 2026-04-22 09:20 | 55.62757 | 12.64473 | 26 ft | 0 kts | 101° |
| 2026-04-22 09:48 | 55.62757 | 12.64470 | 23 ft | 2 kts | 101° |
| 2026-04-22 09:49 | 55.62764 | 12.64427 | 25 ft | 4 kts | 121° |
| 2026-04-22 09:49 | 55.62781 | 12.64398 | 24 ft | 4 kts | 171° |
| 2026-04-22 09:49 | 55.62791 | 12.64396 | 23 ft | 1 kts | 192° |
| 2026-04-22 09:53 | 55.62789 | 12.64396 | 23 ft | 1 kts | 192° |
| 2026-04-22 09:53 | 55.62768 | 12.64388 | 25 ft | 5 kts | 194° |
| 2026-04-22 09:53 | 55.62721 | 12.64353 | 23 ft | 9 kts | 204° |
| 2026-04-22 09:54 | 55.62650 | 12.64300 | 23 ft | 12 kts | 202° |
| 2026-04-22 09:54 | 55.62577 | 12.64220 | 23 ft | 12 kts | 214° |
| 2026-04-22 09:54 | 55.62507 | 12.64253 | 23 ft | 12 kts | 126° |
| 2026-04-22 09:54 | 55.62458 | 12.64369 | 23 ft | 12 kts | 127° |
| 2026-04-22 09:55 | 55.62397 | 12.64444 | 25 ft | 12 kts | 183° |
| 2026-04-22 09:55 | 55.62315 | 12.64416 | 22 ft | 13 kts | 195° |
| 2026-04-22 09:55 | 55.62218 | 12.64402 | 20 ft | 15 kts | 169° |
| 2026-04-22 09:55 | 55.62112 | 12.64439 | 22 ft | 15 kts | 170° |
| 2026-04-22 09:56 | 55.62009 | 12.64472 | 25 ft | 15 kts | 169° |
| 2026-04-22 09:56 | 55.61911 | 12.64506 | 23 ft | 14 kts | 169° |
| 2026-04-22 09:56 | 55.61817 | 12.64538 | 25 ft | 13 kts | 169° |
| 2026-04-22 09:56 | 55.61728 | 12.64567 | 24 ft | 13 kts | 169° |
| 2026-04-22 09:57 | 55.61643 | 12.64527 | 25 ft | 13 kts | 211° |
| 2026-04-22 09:57 | 55.61560 | 12.64432 | 24 ft | 15 kts | 213° |
| 2026-04-22 09:57 | 55.61469 | 12.64328 | 25 ft | 17 kts | 213° |
| 2026-04-22 09:57 | 55.61367 | 12.64211 | 23 ft | 18 kts | 213° |
| 2026-04-22 09:58 | 55.61258 | 12.64085 | 24 ft | 19 kts | 213° |
| 2026-04-22 09:58 | 55.61149 | 12.63959 | 23 ft | 19 kts | 213° |
| 2026-04-22 09:58 | 55.61039 | 12.63834 | 24 ft | 18 kts | 213° |
| 2026-04-22 09:58 | 55.60934 | 12.63714 | 23 ft | 18 kts | 213° |
| 2026-04-22 09:59 | 55.60837 | 12.63603 | 23 ft | 11 kts | 209° |
| 2026-04-22 09:59 | 55.60769 | 12.63636 | 25 ft | 11 kts | 131° |
| 2026-04-22 09:59 | 55.60718 | 12.63740 | 25 ft | 11 kts | 130° |
| 2026-04-22 09:59 | 55.60677 | 12.63851 | 25 ft | 11 kts | 89° |
| 2026-04-22 10:00 | 55.60746 | 12.63974 | 29 ft | 27 kts | 42° |
| 2026-04-22 10:00 | 55.61078 | 12.64485 | 24 ft | 99 kts | 41° |
| 2026-04-22 10:00 | 55.61757 | 12.65493 | 70 ft | 149 kts | 34° |
| 2026-04-22 10:00 | 55.62593 | 12.66697 | 604 ft | 158 kts | 35° |
| 2026-04-22 10:01 | 55.63436 | 12.67990 | 1380 ft | 158 kts | 37° |
| 2026-04-22 10:01 | 55.64262 | 12.69282 | 2096 ft | 166 kts | 34° |
| 2026-04-22 10:01 | 55.65199 | 12.70742 | 2509 ft | 187 kts | 35° |
| 2026-04-22 10:01 | 55.66190 | 12.72273 | 3193 ft | 190 kts | 34° |
| 2026-04-22 10:02 | 55.67207 | 12.73820 | 3819 ft | 196 kts | 35° |
| 2026-04-22 10:02 | 55.68145 | 12.75617 | 4547 ft | 206 kts | 60° |
| 2026-04-22 10:02 | 55.68349 | 12.78181 | 5338 ft | 219 kts | 93° |
| 2026-04-22 10:02 | 55.67790 | 12.80741 | 6092 ft | 230 kts | 123° |
| 2026-04-22 10:03 | 55.66540 | 12.82529 | 6880 ft | 238 kts | 158° |
| 2026-04-22 10:03 | 55.64911 | 12.83044 | 7660 ft | 240 kts | 179° |
| 2026-04-22 10:03 | 55.63235 | 12.83004 | 8501 ft | 242 kts | 182° |
| 2026-04-22 10:03 | 55.61539 | 12.82868 | 9269 ft | 250 kts | 183° |
| 2026-04-22 10:04 | 55.59703 | 12.82713 | 9585 ft | 280 kts | 182° |
| 2026-04-22 10:04 | 55.57666 | 12.82556 | 10021 ft | 302 kts | 182° |
| 2026-04-22 10:04 | 55.55529 | 12.82408 | 10695 ft | 315 kts | 182° |
| 2026-04-22 10:04 | 55.53240 | 12.82263 | 10986 ft | 341 kts | 181° |
| 2026-04-22 10:05 | 55.50836 | 12.82121 | 11699 ft | 350 kts | 181° |
| 2026-04-22 10:05 | 55.48384 | 12.81981 | 12587 ft | 354 kts | 181° |
| 2026-04-22 10:05 | 55.45911 | 12.81843 | 13505 ft | 358 kts | 181° |
| 2026-04-22 10:05 | 55.43407 | 12.81704 | 14385 ft | 363 kts | 180° |
| 2026-04-22 10:06 | 55.40870 | 12.81565 | 15225 ft | 367 kts | 180° |
| 2026-04-22 10:06 | 55.38306 | 12.81496 | 16098 ft | 370 kts | 174° |
| 2026-04-22 10:06 | 55.35835 | 12.82651 | 16965 ft | 368 kts | 150° |
| 2026-04-22 10:06 | 55.33808 | 12.85305 | 17955 ft | 362 kts | 129° |
| 2026-04-22 10:07 | 55.32415 | 12.88879 | 18797 ft | 360 kts | 111° |
| 2026-04-22 10:07 | 55.31678 | 12.93066 | 19518 ft | 360 kts | 99° |
| 2026-04-22 10:07 | 55.31166 | 12.97379 | 20301 ft | 363 kts | 98° |
| 2026-04-22 10:07 | 55.30689 | 13.01751 | 21071 ft | 366 kts | 98° |
| 2026-04-22 10:08 | 55.30210 | 13.06135 | 21834 ft | 370 kts | 98° |
| 2026-04-22 10:08 | 55.29712 | 13.10585 | 22583 ft | 374 kts | 98° |
| 2026-04-22 10:08 | 55.29371 | 13.13557 | 23048 ft | 376 kts | 98° |
| 2026-04-22 10:08 | 55.28845 | 13.18071 | 23791 ft | 380 kts | 99° |
| 2026-04-22 10:09 | 55.28307 | 13.22623 | 24406 ft | 383 kts | 99° |
| 2026-04-22 10:09 | 55.27752 | 13.27279 | 25027 ft | 386 kts | 99° |
| 2026-04-22 10:09 | 55.27205 | 13.31842 | 25622 ft | 389 kts | 99° |
| 2026-04-22 10:09 | 55.26644 | 13.36510 | 26231 ft | 392 kts | 99° |
| 2026-04-22 10:10 | 55.26080 | 13.41196 | 26832 ft | 395 kts | 99° |
| 2026-04-22 10:10 | 55.25507 | 13.45922 | 27404 ft | 398 kts | 100° |
| 2026-04-22 10:10 | 55.24747 | 13.50616 | 27943 ft | 404 kts | 108° |
| 2026-04-22 10:10 | 55.23545 | 13.55096 | 28484 ft | 409 kts | 115° |
| 2026-04-22 10:11 | 55.22160 | 13.59476 | 29020 ft | 413 kts | 116° |
| 2026-04-22 10:11 | 55.20743 | 13.63865 | 29564 ft | 415 kts | 116° |
| 2026-04-22 10:11 | 55.19324 | 13.68258 | 30260 ft | 413 kts | 116° |
| 2026-04-22 10:11 | 55.17927 | 13.72610 | 30932 ft | 409 kts | 116° |
| 2026-04-22 10:12 | 55.16544 | 13.76944 | 31522 ft | 407 kts | 116° |
| 2026-04-22 10:12 | 55.15171 | 13.81265 | 32027 ft | 407 kts | 115° |
| 2026-04-22 10:12 | 55.13799 | 13.85587 | 32544 ft | 406 kts | 115° |
| 2026-04-22 10:12 | 55.12435 | 13.89882 | 33142 ft | 403 kts | 115° |
| 2026-04-22 10:13 | 55.11076 | 13.94151 | 33685 ft | 401 kts | 115° |
| 2026-04-22 10:13 | 55.09720 | 13.98406 | 34131 ft | 401 kts | 115° |
| 2026-04-22 10:13 | 55.08364 | 14.02659 | 34512 ft | 401 kts | 115° |
| 2026-04-22 10:13 | 55.07001 | 14.06917 | 34862 ft | 402 kts | 115° |
| 2026-04-22 10:14 | 55.05638 | 14.11171 | 35194 ft | 402 kts | 115° |
| 2026-04-22 10:14 | 55.04341 | 14.15510 | 35236 ft | 405 kts | 112° |
| 2026-04-22 10:14 | 55.01905 | 14.24369 | 35245 ft | 403 kts | 111° |
| 2026-04-22 10:15 | 54.99525 | 14.33112 | 35272 ft | 399 kts | 111° |
| 2026-04-22 10:15 | 54.97113 | 14.41844 | 35259 ft | 401 kts | 112° |
| 2026-04-22 10:16 | 54.94671 | 14.50602 | 35249 ft | 403 kts | 112° |
| 2026-04-22 10:16 | 54.92215 | 14.59359 | 35242 ft | 402 kts | 112° |
| 2026-04-22 10:17 | 54.89760 | 14.68079 | 35242 ft | 401 kts | 112° |
| 2026-04-22 10:17 | 54.87307 | 14.76764 | 35249 ft | 400 kts | 112° |
| 2026-04-22 10:18 | 54.84855 | 14.85418 | 35257 ft | 399 kts | 112° |
| 2026-04-22 10:18 | 54.82413 | 14.93963 | 35242 ft | 398 kts | 114° |
| 2026-04-22 10:19 | 54.79431 | 15.02059 | 35246 ft | 399 kts | 121° |
| 2026-04-22 10:19 | 54.76254 | 15.09938 | 35246 ft | 398 kts | 121° |
| 2026-04-22 10:20 | 54.73088 | 15.17806 | 35242 ft | 398 kts | 121° |
| 2026-04-22 10:20 | 54.69934 | 15.25701 | 35249 ft | 399 kts | 121° |
| 2026-04-22 10:21 | 54.66785 | 15.33601 | 35253 ft | 399 kts | 120° |
| 2026-04-22 10:21 | 54.63632 | 15.41496 | 35245 ft | 399 kts | 120° |
| 2026-04-22 10:22 | 54.60482 | 15.49361 | 35246 ft | 398 kts | 121° |
| 2026-04-22 10:22 | 54.57335 | 15.57194 | 35244 ft | 397 kts | 121° |
| 2026-04-22 10:23 | 54.54186 | 15.65006 | 35245 ft | 396 kts | 121° |
| 2026-04-22 10:23 | 54.51038 | 15.72792 | 35244 ft | 396 kts | 121° |
| 2026-04-22 10:24 | 54.47884 | 15.80569 | 35258 ft | 396 kts | 121° |
| 2026-04-22 10:24 | 54.44742 | 15.88290 | 35251 ft | 397 kts | 121° |
| 2026-04-22 10:25 | 54.41571 | 15.96059 | 35248 ft | 397 kts | 121° |
| 2026-04-22 10:25 | 54.38402 | 16.03802 | 35250 ft | 397 kts | 121° |
| 2026-04-22 10:26 | 54.35220 | 16.11549 | 35250 ft | 398 kts | 121° |
| 2026-04-22 10:26 | 54.32033 | 16.19285 | 35272 ft | 398 kts | 121° |
| 2026-04-22 10:27 | 54.28832 | 16.27029 | 35259 ft | 398 kts | 121° |
| 2026-04-22 10:27 | 54.25622 | 16.34773 | 35249 ft | 399 kts | 121° |
| 2026-04-22 10:28 | 54.22411 | 16.42496 | 35238 ft | 398 kts | 121° |
| 2026-04-22 10:28 | 54.19197 | 16.50202 | 35245 ft | 398 kts | 121° |
| 2026-04-22 10:29 | 54.15976 | 16.57898 | 35242 ft | 398 kts | 121° |
| 2026-04-22 10:29 | 54.12755 | 16.65574 | 35242 ft | 398 kts | 121° |
| 2026-04-22 10:30 | 54.09547 | 16.73195 | 35238 ft | 398 kts | 121° |
| 2026-04-22 10:30 | 54.06288 | 16.80912 | 35235 ft | 399 kts | 121° |
| 2026-04-22 10:31 | 54.03070 | 16.88509 | 35220 ft | 399 kts | 121° |
| 2026-04-22 10:31 | 53.99821 | 16.96157 | 35223 ft | 399 kts | 121° |
| 2026-04-22 10:32 | 53.96568 | 17.03790 | 35215 ft | 399 kts | 121° |
| 2026-04-22 10:32 | 53.93313 | 17.11406 | 35220 ft | 399 kts | 121° |
| 2026-04-22 10:33 | 53.90053 | 17.19008 | 35211 ft | 398 kts | 121° |
| 2026-04-22 10:33 | 53.86790 | 17.26595 | 35202 ft | 398 kts | 121° |
| 2026-04-22 10:34 | 53.83529 | 17.34155 | 35205 ft | 397 kts | 121° |
| 2026-04-22 10:34 | 53.80265 | 17.41701 | 35200 ft | 397 kts | 121° |
| 2026-04-22 10:35 | 53.76997 | 17.49232 | 35224 ft | 397 kts | 121° |
| 2026-04-22 10:35 | 53.73718 | 17.56765 | 35204 ft | 398 kts | 121° |
| 2026-04-22 10:36 | 53.70433 | 17.64290 | 35193 ft | 398 kts | 121° |
| 2026-04-22 10:36 | 53.67141 | 17.71807 | 35193 ft | 398 kts | 121° |
| 2026-04-22 10:37 | 53.62196 | 17.83058 | 35193 ft | 398 kts | 121° |
| 2026-04-22 10:38 | 53.58894 | 17.90544 | 35212 ft | 398 kts | 121° |
| 2026-04-22 10:38 | 53.55608 | 17.97970 | 35201 ft | 398 kts | 121° |
| 2026-04-22 10:39 | 53.52296 | 18.05433 | 35190 ft | 398 kts | 121° |
| 2026-04-22 10:39 | 53.48983 | 18.12876 | 35186 ft | 398 kts | 121° |
| 2026-04-22 10:40 | 53.45668 | 18.20302 | 35188 ft | 397 kts | 121° |
| 2026-04-22 10:40 | 53.42351 | 18.27712 | 35198 ft | 397 kts | 122° |
| 2026-04-22 10:41 | 53.39030 | 18.35108 | 35199 ft | 397 kts | 121° |
| 2026-04-22 10:41 | 53.35701 | 18.42501 | 35185 ft | 398 kts | 122° |
| 2026-04-22 10:42 | 53.32366 | 18.49884 | 35183 ft | 398 kts | 122° |
| 2026-04-22 10:42 | 53.29028 | 18.57252 | 35201 ft | 398 kts | 122° |
| 2026-04-22 10:43 | 53.25681 | 18.64620 | 35194 ft | 398 kts | 122° |
| 2026-04-22 10:43 | 53.22327 | 18.71983 | 35192 ft | 399 kts | 122° |
| 2026-04-22 10:43 | 53.20644 | 18.75668 | 35061 ft | 400 kts | 122° |
| 2026-04-22 10:44 | 53.18952 | 18.79371 | 34670 ft | 399 kts | 122° |
| 2026-04-22 10:44 | 53.17274 | 18.83030 | 34233 ft | 396 kts | 121° |
| 2026-04-22 10:44 | 53.15608 | 18.86662 | 33749 ft | 392 kts | 121° |
| 2026-04-22 10:44 | 53.13961 | 18.90248 | 33293 ft | 387 kts | 121° |
| 2026-04-22 10:45 | 53.12333 | 18.93789 | 32873 ft | 382 kts | 121° |
| 2026-04-22 10:45 | 53.10748 | 18.97233 | 32477 ft | 377 kts | 121° |
| 2026-04-22 10:45 | 53.09139 | 19.00718 | 32046 ft | 373 kts | 122° |
| 2026-04-22 10:45 | 53.07568 | 19.04047 | 31711 ft | 368 kts | 122° |
| 2026-04-22 10:46 | 53.05976 | 19.07352 | 31296 ft | 365 kts | 122° |
| 2026-04-22 10:46 | 53.04394 | 19.10615 | 30913 ft | 361 kts | 122° |
| 2026-04-22 10:46 | 53.02827 | 19.13846 | 30537 ft | 357 kts | 122° |
| 2026-04-22 10:46 | 53.01277 | 19.17041 | 30131 ft | 354 kts | 122° |
| 2026-04-22 10:47 | 52.99745 | 19.20202 | 29696 ft | 349 kts | 122° |
| 2026-04-22 10:47 | 52.98236 | 19.23315 | 29265 ft | 344 kts | 122° |
| 2026-04-22 10:47 | 52.96745 | 19.26389 | 28864 ft | 339 kts | 122° |
| 2026-04-22 10:47 | 52.95275 | 19.29418 | 28458 ft | 335 kts | 122° |
| 2026-04-22 10:48 | 52.93821 | 19.32411 | 28056 ft | 331 kts | 122° |
| 2026-04-22 10:48 | 52.92384 | 19.35368 | 27648 ft | 328 kts | 122° |
| 2026-04-22 10:48 | 52.90959 | 19.38296 | 27231 ft | 325 kts | 122° |
| 2026-04-22 10:48 | 52.89546 | 19.41196 | 26858 ft | 322 kts | 122° |
| 2026-04-22 10:49 | 52.88142 | 19.44076 | 26452 ft | 320 kts | 122° |
| 2026-04-22 10:49 | 52.86747 | 19.46933 | 26057 ft | 318 kts | 122° |
| 2026-04-22 10:49 | 52.85357 | 19.49780 | 25675 ft | 319 kts | 122° |
| 2026-04-22 10:49 | 52.83957 | 19.52644 | 25320 ft | 321 kts | 122° |
| 2026-04-22 10:50 | 52.82540 | 19.55542 | 24918 ft | 328 kts | 122° |
| 2026-04-22 10:50 | 52.81091 | 19.58505 | 24513 ft | 335 kts | 122° |
| 2026-04-22 10:50 | 52.79621 | 19.61499 | 24088 ft | 335 kts | 122° |
| 2026-04-22 10:50 | 52.78150 | 19.64483 | 23658 ft | 334 kts | 122° |
| 2026-04-22 10:51 | 52.76688 | 19.67447 | 23174 ft | 332 kts | 122° |
| 2026-04-22 10:51 | 52.75239 | 19.70384 | 22748 ft | 328 kts | 122° |
| 2026-04-22 10:51 | 52.73805 | 19.73288 | 22336 ft | 325 kts | 122° |
| 2026-04-22 10:51 | 52.72386 | 19.76161 | 21926 ft | 322 kts | 122° |
| 2026-04-22 10:52 | 52.70979 | 19.79004 | 21531 ft | 319 kts | 122° |
| 2026-04-22 10:52 | 52.69585 | 19.81827 | 21129 ft | 316 kts | 121° |
| 2026-04-22 10:52 | 52.68374 | 19.84790 | 20817 ft | 309 kts | 114° |
| 2026-04-22 10:52 | 52.67312 | 19.87869 | 20515 ft | 310 kts | 112° |
| 2026-04-22 10:53 | 52.66273 | 19.90994 | 20197 ft | 313 kts | 112° |
| 2026-04-22 10:53 | 52.65234 | 19.94105 | 19898 ft | 315 kts | 113° |
| 2026-04-22 10:53 | 52.64149 | 19.97313 | 19580 ft | 317 kts | 113° |
| 2026-04-22 10:53 | 52.63063 | 20.00485 | 19262 ft | 319 kts | 114° |
| 2026-04-22 10:54 | 52.61983 | 20.03614 | 18937 ft | 318 kts | 114° |
| 2026-04-22 10:54 | 52.60890 | 20.06757 | 18615 ft | 314 kts | 114° |
| 2026-04-22 10:54 | 52.59810 | 20.09850 | 18264 ft | 309 kts | 114° |
| 2026-04-22 10:54 | 52.58745 | 20.12899 | 17938 ft | 306 kts | 114° |
| 2026-04-22 10:55 | 52.57685 | 20.15928 | 17614 ft | 305 kts | 114° |
| 2026-04-22 10:55 | 52.56628 | 20.18947 | 17322 ft | 304 kts | 114° |
| 2026-04-22 10:55 | 52.55574 | 20.21954 | 17005 ft | 303 kts | 114° |
| 2026-04-22 10:55 | 52.54522 | 20.24955 | 16704 ft | 303 kts | 114° |
| 2026-04-22 10:56 | 52.53468 | 20.27951 | 16395 ft | 303 kts | 115° |
| 2026-04-22 10:56 | 52.52414 | 20.30944 | 16101 ft | 303 kts | 115° |
| 2026-04-22 10:56 | 52.51359 | 20.33937 | 15813 ft | 303 kts | 115° |
| 2026-04-22 10:56 | 52.50308 | 20.36940 | 15473 ft | 304 kts | 115° |
| 2026-04-22 10:57 | 52.49261 | 20.39952 | 15186 ft | 304 kts | 115° |
| 2026-04-22 10:57 | 52.48209 | 20.42981 | 14884 ft | 306 kts | 115° |
| 2026-04-22 10:57 | 52.47155 | 20.46011 | 14575 ft | 307 kts | 115° |
| 2026-04-22 10:57 | 52.46439 | 20.48067 | 14375 ft | 307 kts | 115° |
| 2026-04-22 10:58 | 52.45393 | 20.51068 | 14069 ft | 308 kts | 115° |
| 2026-04-22 10:58 | 52.44327 | 20.54118 | 13736 ft | 309 kts | 116° |
| 2026-04-22 10:58 | 52.43262 | 20.57161 | 13394 ft | 305 kts | 116° |
| 2026-04-22 10:58 | 52.42215 | 20.60153 | 13069 ft | 300 kts | 116° |
| 2026-04-22 10:59 | 52.41182 | 20.63099 | 12776 ft | 298 kts | 116° |
| 2026-04-22 10:59 | 52.40150 | 20.66041 | 12482 ft | 298 kts | 116° |
| 2026-04-22 10:59 | 52.39119 | 20.68974 | 12185 ft | 297 kts | 116° |
| 2026-04-22 10:59 | 52.38088 | 20.71901 | 11913 ft | 296 kts | 116° |
| 2026-04-22 11:00 | 52.37059 | 20.74819 | 11644 ft | 295 kts | 116° |
| 2026-04-22 11:00 | 52.36032 | 20.77728 | 11380 ft | 294 kts | 117° |
| 2026-04-22 11:00 | 52.35010 | 20.80619 | 11114 ft | 293 kts | 117° |
| 2026-04-22 11:00 | 52.33991 | 20.83502 | 10849 ft | 292 kts | 116° |
| 2026-04-22 11:01 | 52.32972 | 20.86378 | 10569 ft | 292 kts | 117° |
| 2026-04-22 11:01 | 52.31955 | 20.89251 | 10299 ft | 291 kts | 117° |
| 2026-04-22 11:01 | 52.30950 | 20.92084 | 10035 ft | 285 kts | 117° |
| 2026-04-22 11:01 | 52.29961 | 20.94867 | 9754 ft | 281 kts | 117° |
| 2026-04-22 11:02 | 52.28985 | 20.97611 | 9475 ft | 279 kts | 116° |
| 2026-04-22 11:02 | 52.28013 | 21.00340 | 9235 ft | 278 kts | 116° |
| 2026-04-22 11:02 | 52.26877 | 21.02919 | 8955 ft | 285 kts | 137° |
| 2026-04-22 11:02 | 52.25191 | 21.04637 | 8754 ft | 286 kts | 150° |
| 2026-04-22 11:03 | 52.23423 | 21.06137 | 8459 ft | 288 kts | 151° |
| 2026-04-22 11:03 | 52.21644 | 21.07635 | 8198 ft | 287 kts | 151° |
| 2026-04-22 11:03 | 52.19873 | 21.09142 | 7931 ft | 286 kts | 151° |
| 2026-04-22 11:03 | 52.18111 | 21.10652 | 7671 ft | 284 kts | 151° |
| 2026-04-22 11:04 | 52.16380 | 21.12140 | 7411 ft | 277 kts | 151° |
| 2026-04-22 11:04 | 52.14704 | 21.13580 | 7133 ft | 268 kts | 151° |
| 2026-04-22 11:04 | 52.13100 | 21.14980 | 6797 ft | 262 kts | 150° |
| 2026-04-22 11:04 | 52.11528 | 21.16359 | 6558 ft | 253 kts | 150° |
| 2026-04-22 11:05 | 52.09984 | 21.17713 | 6303 ft | 252 kts | 150° |
| 2026-04-22 11:05 | 52.08435 | 21.19068 | 6086 ft | 254 kts | 151° |
| 2026-04-22 11:05 | 52.06851 | 21.20456 | 5769 ft | 255 kts | 151° |
| 2026-04-22 11:05 | 52.05330 | 21.21786 | 5456 ft | 249 kts | 151° |
| 2026-04-22 11:06 | 52.03820 | 21.23104 | 5142 ft | 244 kts | 152° |
| 2026-04-22 11:06 | 52.02234 | 21.23857 | 4810 ft | 236 kts | 185° |
| 2026-04-22 11:06 | 52.00721 | 21.23160 | 4548 ft | 221 kts | 217° |
| 2026-04-22 11:06 | 51.99621 | 21.21584 | 4261 ft | 204 kts | 240° |
| 2026-04-22 11:07 | 51.98924 | 21.19669 | 3946 ft | 193 kts | 247° |
| 2026-04-22 11:07 | 51.98296 | 21.17777 | 3665 ft | 188 kts | 247° |
| 2026-04-22 11:07 | 51.97749 | 21.15879 | 3457 ft | 184 kts | 263° |
| 2026-04-22 11:07 | 51.97976 | 21.13963 | 3174 ft | 172 kts | 309° |
| 2026-04-22 11:08 | 51.98927 | 21.12854 | 3097 ft | 173 kts | 330° |
| 2026-04-22 11:08 | 51.99968 | 21.11775 | 2989 ft | 178 kts | 326° |
| 2026-04-22 11:08 | 52.00976 | 21.10723 | 2918 ft | 164 kts | 326° |
| 2026-04-22 11:08 | 52.01869 | 21.09760 | 2946 ft | 149 kts | 325° |
| 2026-04-22 11:09 | 52.02729 | 21.08876 | 2986 ft | 146 kts | 330° |
| 2026-04-22 11:09 | 52.03632 | 21.08069 | 2964 ft | 147 kts | 330° |
| 2026-04-22 11:09 | 52.04535 | 21.07272 | 2846 ft | 147 kts | 330° |
| 2026-04-22 11:09 | 52.05440 | 21.06479 | 2665 ft | 150 kts | 330° |
| 2026-04-22 11:10 | 52.06369 | 21.05661 | 2490 ft | 150 kts | 330° |
| 2026-04-22 11:10 | 52.07269 | 21.04870 | 2235 ft | 140 kts | 330° |
| 2026-04-22 11:10 | 52.08089 | 21.04151 | 2041 ft | 128 kts | 331° |
| 2026-04-22 11:10 | 52.08851 | 21.03469 | 1867 ft | 124 kts | 332° |
| 2026-04-22 11:11 | 52.09589 | 21.02833 | 1708 ft | 113 kts | 331° |
| 2026-04-22 11:11 | 52.10285 | 21.02227 | 1551 ft | 117 kts | 332° |
| 2026-04-22 11:11 | 52.11020 | 21.01581 | 1396 ft | 120 kts | 332° |
| 2026-04-22 11:11 | 52.11742 | 21.00946 | 1205 ft | 119 kts | 330° |
| 2026-04-22 11:12 | 52.12464 | 21.00274 | 1055 ft | 118 kts | 330° |
| 2026-04-22 11:12 | 52.13187 | 20.99616 | 871 ft | 121 kts | 331° |
| 2026-04-22 11:12 | 52.13920 | 20.98976 | 728 ft | 121 kts | 333° |
| 2026-04-22 11:12 | 52.14672 | 20.98329 | 559 ft | 125 kts | 333° |
| 2026-04-22 11:13 | 52.15447 | 20.97677 | 413 ft | 126 kts | 333° |
| 2026-04-22 11:13 | 52.16198 | 20.97036 | 340 ft | 113 kts | 330° |
| 2026-04-22 11:13 | 52.16769 | 20.96542 | 338 ft | 72 kts | 332° |
| 2026-04-22 11:13 | 52.17099 | 20.96279 | 335 ft | 42 kts | 345° |
| 2026-04-22 11:14 | 52.17305 | 20.96245 | 336 ft | 17 kts | 1° |
| 2026-04-22 11:14 | 52.17387 | 20.96271 | 338 ft | 12 kts | 41° |
| 2026-04-22 11:14 | 52.17394 | 20.96284 | 335 ft | 0 kts | 56° |
| 2026-04-22 11:15 | 52.17395 | 20.96287 | 333 ft | 1 kts | 56° |
| 2026-04-22 11:15 | 52.17407 | 20.96317 | 336 ft | 6 kts | 60° |
| 2026-04-22 11:16 | 52.17438 | 20.96409 | 337 ft | 11 kts | 63° |
| 2026-04-22 11:16 | 52.17467 | 20.96540 | 333 ft | 13 kts | 99° |
| 2026-04-22 11:16 | 52.17400 | 20.96628 | 336 ft | 13 kts | 151° |
| 2026-04-22 11:16 | 52.17324 | 20.96694 | 337 ft | 12 kts | 152° |
| 2026-04-22 11:17 | 52.17249 | 20.96758 | 336 ft | 12 kts | 152° |
| 2026-04-22 11:17 | 52.17177 | 20.96824 | 335 ft | 12 kts | 152° |
| 2026-04-22 11:17 | 52.17107 | 20.96885 | 333 ft | 11 kts | 152° |
| 2026-04-22 11:17 | 52.17070 | 20.96924 | 335 ft | 4 kts | 124° |
| 2026-04-22 11:18 | 52.17077 | 20.96977 | 337 ft | 7 kts | 58° |
| 2026-04-22 11:18 | 52.17091 | 20.97042 | 338 ft | 3 kts | 75° |
| 2026-04-22 11:18 | 52.17092 | 20.97052 | 336 ft | 0 kts | 75° |
| 2026-04-22 11:18 | 52.17093 | 20.97057 | 333 ft | 0 kts | 75° |